My Meet Scores
Evelynne Schnidt, GymNasti - MyMeetScores.com
Top100 | Top Teams | Upcoming Meets | Completed Meets | Latest | Add Scores | Help| Support | Bookmark and Share

Evelynne Schnidt, GymNasti
Personal Bests
LevelVault BarsBeamFloorAA
39.6509.325 9.2009.45037.075
49.9009.850 9.8509.75039.275
79.5759.600 9.6259.52538.225
89.5259.750 9.4259.47537.575
Scores on America's Top 100as of 09.28.2022
Year Level Vault Bars Beam Floor AA
2019 49.72538.875
2020 49.9009.850, 9.850, 9.8259.850, 9.85039.275, 38.600, 38.375

Click here to view our exclusive Top 100 Collection
Meet Scores
Date Meet Team Session Level Division Vault Bars Beam Floor AA
2022-04-28 Region 5 Level 6-8 Regional Championship GymNasti B09 8 Ch A2 9.100 20 9.750 3T 9.250 19 9.475 7T 37.575 9
2022-04-27 2022 Region 5 Level 6,7,8 Championships Gym Nasti B09 8 Ch A2 9.100 20 9.750 3T 9.250 19 9.475 7T 37.575 9
2022-04-01 Level 6-7-8 State 2022 Gym Nasti 01 8 Jr A 9.525 5 9.375 12T 9.200 12 9.425 13 37.525 5
2022-03-10 Lucky Invite Gym Nasti A11 8 Younger 9.275 2 9.350 6 9.050 12 9.400 5 37.075 6
2022-02-24 Great Western Invitational - Women%27s GymNasti 4B 8 Filly 9.000 7T 9.350 3 9.175 4 9.250 6 36.775 2
2022-02-18 Women's Midwest Open 2022 Gym Nasti 3 8 Junior A 9.275 4 9.425 5 9.425 7 9.025 9 37.150 6
2022-02-04 Arizona Sunrays Classic Rock Invitational Gym Nasti 08R 8 Jr A 9.150 4 9.225 10 9.150 9 9.125 11* 36.650 8T
2022-01-21 UGA Invitational Gym Nasti 1A 8 Junior 8.775 6 9.375 5 8.900 5T 9.350 6T 36.400 6
2022-01-07 St Jude Benefit Meet 2022 GymNasti 2B 8 Jr A 9.225 2T 9.575 2 8.650 8 9.275 4 36.725 2
2021-12-10 St. Nick Invite 2021 Gym Nasti 3A 8 JrA 9.450 3T 9.050 6 8.975 4 8.900 4 36.375 4
2021-04-23 Region 5 Level 7/8 Regional Championships Illinois State Team 08C 7 JR A2 9.575 1 9.575 5 9.625 9T 9.450 12T 38.225 4
2021-04-09 Illinois Level 7 8 State Championships Gym Nasti 1 7 Jr A 9.275 11T 9.600 6T 9.375 15T 9.450 14T 37.700 8
2021-03-12 LUCKY INVITATIONAL Gym Nasti B06 7 Jr A 9.275 3 9.450 3 9.400 3 9.525 2 37.650 1
2021-02-19 Women's Midwest Open 2021 Gym Nasti 05B 7 Junior A 9.375 2 9.475 3 9.425 4 9.450 4T 37.725 3
2021-02-12 Super Girl Invite GymNasti 9 7 Younger 9.250 3 9.550 2 9.450 3T 9.500 3T 37.750 3
2020-03-06 Illinois Level 4 State Championships St. Charles Gymnastics Academy 3 4 Youth C 9.900 1 9.825 1 9.850 1 9.700 1 39.275 1
2020-02-21 Great Western Invitational - Women's St. Charles Gymnastics Academy 05 4 Cowgirl 9.400 1 9.850 1 9.700 1 9.650 1 38.600 1
2020-02-14 Big Classic St. Charles Gymnastics Academy 3B 4 Child C 8.950 2 9.550 2T 9.850 1 9.700 1 38.050 2
2020-02-07 SCGA Classic St. Charles Gymnastics Academy 4 4 Jr A 9.350 1 9.750 1 9.750 1 9.525 1 38.375 1
2020-01-24 King Arthur Invitational St. Charles Gymnastics Academy 1 4 Jr C 9.200 2T 9.725 1 9.525 2 9.400 1 37.850 1
2020-01-10 St Jude Benefit Meet St. Charles Gymnastics Academy 3A 4 Jr C 9.550 1 9.850 1 9.350 2 9.500 1 38.250 1
2019-12-13 2019 St Nick St. Charles Gymnastics Academy 6B 4 JrB 9.725 1 9.800 1 9.600 1 9.750 1 38.875 1
2019-03-22 Illinois Gymnastics State Championships St. Charles Gymnastics Academy 8 4 Ch C 8.800 11 9.725 1 9.625 1T 9.525 3 37.675 3
2019-02-15 Women's Midwest Open St. Charles Gymnastics Academy 15 4 Junior A 8.750 4 9.475 1 9.150 6T 9.550 5 36.925 3
2019-02-08 IGI Chicago Style 2019 St. Charles Gymnastics Academy 38 4 231 Lakeshore L4 A 8.825 7 9.200 7 9.575 5 8.850 6 36.450 6
2019-01-25 King Arthur Invitational St. Charles Gymnastics Academy 9 4 JR A 9.125 2 9.400 2 9.300 2 9.350 2 37.175 2
2019-01-11 St Jude Benefit Meet St. Charles Gymnastics Academy 7A 4 Jr A 9.350 1 9.350 2 9.400 4T 9.200 7 37.300 3
2018-12-07 St. Nick Invite 2018 St. Charles Gymnastics Academy 5A 4 JrA 8.650 10 9.200 5 9.325 4 9.150 6T 36.325 6
2018-02-23 Kinetic Classic St. Charles Gymnastics Academy 5 3 Younger 9.050 30T 9.150 53T 8.900 46T 9.400 22T 36.500 35T
2018-02-16 Big Classic St. Charles Gymnastics Academy 8B 3 Child A 9.350 3 9.050 6 9.125 3 9.450 2 36.975 2
2018-01-26 King Arthur Invitational St. Charles Gymnastics Academy 7 3 JR B 9.650 1 9.325 1 9.200 1 8.900 1 37.075 1
2018-01-12 St Jude Benefit Meet St. Charles Gymnastics Academy 7A 3 JrA 9.375 3 9.275 2 8.850 4 9.125 2 36.625 2
2017-12-14 2017 Women's Hawaiian Pineapple Classic St. Charles Gymnastics Academy 4A 3 Age7U 9.125 6 9.175 3 8.500 5 9.150 4 35.950 4
2017-12-01 Ultimate Wish Classic St. Charles Gymnastics Academy 5 3 CH 9.475 2 9.000 5 8.600 4 8.775 7 35.850 3
2017-11-17 SCGA Classic St. Charles Gymnastics Academy 1 3 Child 9.550 1 8.850 3 8.550 3 9.000 3 35.950 1
Get your scores on
a t-shirt, pin, or hoodie